sensor_id;sensor_type;location;lat;lon;timestamp;pressure;altitude;pressure_sealevel;temperature;humidity
34073;BME280;20346;52.702;16.886;2023-12-20T00:00:28;100131.02;;;6.02;100.00
34073;BME280;20346;52.702;16.886;2023-12-20T00:03:14;100121.27;;;6.02;100.00
34073;BME280;20346;52.702;16.886;2023-12-20T00:05:59;100116.30;;;6.03;100.00
34073;BME280;20346;52.702;16.886;2023-12-20T00:08:45;100109.28;;;6.03;100.00
34073;BME280;20346;52.702;16.886;2023-12-20T00:11:31;100107.40;;;6.03;100.00
34073;BME280;20346;52.702;16.886;2023-12-20T00:14:17;100104.33;;;6.02;100.00
34073;BME280;20346;52.702;16.886;2023-12-20T00:17:03;100104.67;;;6.02;100.00
34073;BME280;20346;52.702;16.886;2023-12-20T00:19:48;100100.73;;;6.03;100.00
34073;BME280;20346;52.702;16.886;2023-12-20T00:22:34;100102.95;;;6.02;100.00
34073;BME280;20346;52.702;16.886;2023-12-20T00:25:20;100107.06;;;6.02;100.00
34073;BME280;20346;52.702;16.886;2023-12-20T00:28:07;100104.33;;;6.02;100.00
34073;BME280;20346;52.702;16.886;2023-12-20T00:30:53;100098.00;;;6.01;100.00
34073;BME280;20346;52.702;16.886;2023-12-20T00:33:39;100100.40;;;6.01;100.00
34073;BME280;20346;52.702;16.886;2023-12-20T00:36:29;100098.69;;;6.00;100.00
34073;BME280;20346;52.702;16.886;2023-12-20T00:39:15;100092.54;;;5.98;100.00
34073;BME280;20346;52.702;16.886;2023-12-20T00:42:01;100089.80;;;5.97;100.00
34073;BME280;20346;52.702;16.886;2023-12-20T00:44:47;100088.10;;;5.96;100.00
34073;BME280;20346;52.702;16.886;2023-12-20T00:47:34;100090.67;;;5.96;100.00
34073;BME280;20346;52.702;16.886;2023-12-20T00:50:20;100087.25;;;5.95;100.00
34073;BME280;20346;52.702;16.886;2023-12-20T00:53:07;100089.48;;;5.95;100.00
34073;BME280;20346;52.702;16.886;2023-12-20T00:55:53;100087.09;;;5.95;100.00
34073;BME280;20346;52.702;16.886;2023-12-20T00:58:38;100083.15;;;5.94;100.00
34073;BME280;20346;52.702;16.886;2023-12-20T01:01:24;100082.64;;;5.94;100.00
34073;BME280;20346;52.702;16.886;2023-12-20T01:04:10;100081.96;;;5.95;100.00
34073;BME280;20346;52.702;16.886;2023-12-20T01:06:56;100082.46;;;5.95;100.00
34073;BME280;20346;52.702;16.886;2023-12-20T01:09:42;100085.03;;;5.95;100.00
34073;BME280;20346;52.702;16.886;2023-12-20T01:12:27;100083.66;;;5.95;100.00
34073;BME280;20346;52.702;16.886;2023-12-20T01:15:13;100078.70;;;5.95;100.00
34073;BME280;20346;52.702;16.886;2023-12-20T01:17:59;100080.08;;;5.94;100.00
34073;BME280;20346;52.702;16.886;2023-12-20T01:20:45;100078.52;;;5.96;100.00
34073;BME280;20346;52.702;16.886;2023-12-20T01:23:31;100071.86;;;5.95;100.00
34073;BME280;20346;52.702;16.886;2023-12-20T01:26:17;100065.20;;;5.94;100.00
34073;BME280;20346;52.702;16.886;2023-12-20T01:29:03;100069.48;;;5.93;100.00
34073;BME280;20346;52.702;16.886;2023-12-20T01:31:49;100063.83;;;5.93;100.00
34073;BME280;20346;52.702;16.886;2023-12-20T01:34:35;100066.40;;;5.92;100.00
34073;BME280;20346;52.702;16.886;2023-12-20T01:37:21;100059.39;;;5.93;100.00
34073;BME280;20346;52.702;16.886;2023-12-20T01:40:09;100061.10;;;5.92;100.00
34073;BME280;20346;52.702;16.886;2023-12-20T01:43:02;100053.23;;;5.92;100.00
34073;BME280;20346;52.702;16.886;2023-12-20T01:45:48;100053.40;;;5.92;100.00
34073;BME280;20346;52.702;16.886;2023-12-20T01:48:34;100049.30;;;5.92;100.00
34073;BME280;20346;52.702;16.886;2023-12-20T01:51:20;100045.20;;;5.92;100.00
34073;BME280;20346;52.702;16.886;2023-12-20T01:54:06;100040.41;;;5.91;100.00
34073;BME280;20346;52.702;16.886;2023-12-20T01:56:52;100034.25;;;5.90;100.00
34073;BME280;20346;52.702;16.886;2023-12-20T01:59:39;100032.03;;;5.90;100.00
34073;BME280;20346;52.702;16.886;2023-12-20T02:02:25;100030.66;;;5.90;100.00
34073;BME280;20346;52.702;16.886;2023-12-20T02:05:12;100030.49;;;5.90;100.00
34073;BME280;20346;52.702;16.886;2023-12-20T02:07:58;100029.81;;;5.90;100.00
34073;BME280;20346;52.702;16.886;2023-12-20T02:10:44;100028.09;;;5.88;100.00
34073;BME280;20346;52.702;16.886;2023-12-20T02:13:30;100021.77;;;5.87;100.00
34073;BME280;20346;52.702;16.886;2023-12-20T02:16:16;100023.29;;;5.87;100.00
34073;BME280;20346;52.702;16.886;2023-12-20T02:19:03;100021.75;;;5.88;100.00
34073;BME280;20346;52.702;16.886;2023-12-20T02:21:49;100023.98;;;5.88;100.00
34073;BME280;20346;52.702;16.886;2023-12-20T02:24:36;100027.58;;;5.87;100.00
34073;BME280;20346;52.702;16.886;2023-12-20T02:27:22;100026.20;;;5.87;100.00
34073;BME280;20346;52.702;16.886;2023-12-20T02:30:09;100020.05;;;5.86;100.00
34073;BME280;20346;52.702;16.886;2023-12-20T02:32:55;100021.25;;;5.86;100.00
34073;BME280;20346;52.702;16.886;2023-12-20T02:35:41;100010.64;;;5.85;100.00
34073;BME280;20346;52.702;16.886;2023-12-20T02:38:27;100006.88;;;5.86;100.00
34073;BME280;20346;52.702;16.886;2023-12-20T02:41:13;100003.13;;;5.86;100.00
34073;BME280;20346;52.702;16.886;2023-12-20T02:44:01;100007.39;;;5.85;100.00
34073;BME280;20346;52.702;16.886;2023-12-20T02:46:47;100003.81;;;5.85;100.00
34073;BME280;20346;52.702;16.886;2023-12-20T02:49:33;100004.15;;;5.85;100.00
34073;BME280;20346;52.702;16.886;2023-12-20T02:52:19;100001.41;;;5.85;100.00
34073;BME280;20346;52.702;16.886;2023-12-20T02:55:04;99999.71;;;5.84;100.00
34073;BME280;20346;52.702;16.886;2023-12-20T02:57:50;100001.59;;;5.83;100.00
34073;BME280;20346;52.702;16.886;2023-12-20T03:00:36;100006.21;;;5.83;100.00
34073;BME280;20346;52.702;16.886;2023-12-20T03:03:22;100008.96;;;5.82;100.00
34073;BME280;20346;52.702;16.886;2023-12-20T03:06:08;100008.95;;;5.82;100.00
34073;BME280;20346;52.702;16.886;2023-12-20T03:08:54;100004.52;;;5.82;100.00
34073;BME280;20346;52.702;16.886;2023-12-20T03:11:39;100000.58;;;5.81;100.00
34073;BME280;20346;52.702;16.886;2023-12-20T03:14:25;100001.77;;;5.82;100.00
34073;BME280;20346;52.702;16.886;2023-12-20T03:17:11;99999.90;;;5.81;100.00
34073;BME280;20346;52.702;16.886;2023-12-20T03:19:57;99997.16;;;5.82;100.00
34073;BME280;20346;52.702;16.886;2023-12-20T03:22:43;99997.52;;;5.80;100.00
34073;BME280;20346;52.702;16.886;2023-12-20T03:25:28;99994.27;;;5.78;100.00
34073;BME280;20346;52.702;16.886;2023-12-20T03:28:14;99997.54;;;5.77;100.00
34073;BME280;20346;52.702;16.886;2023-12-20T03:31:01;99996.17;;;5.76;100.00
34073;BME280;20346;52.702;16.886;2023-12-20T03:33:48;99997.54;;;5.77;100.00
34073;BME280;20346;52.702;16.886;2023-12-20T03:36:34;100001.30;;;5.76;100.00
34073;BME280;20346;52.702;16.886;2023-12-20T03:39:19;99999.25;;;5.75;100.00
34073;BME280;20346;52.702;16.886;2023-12-20T03:42:05;100006.09;;;5.75;100.00
34073;BME280;20346;52.702;16.886;2023-12-20T03:44:51;100006.95;;;5.74;100.00
34073;BME280;20346;52.702;16.886;2023-12-20T03:47:37;100005.44;;;5.73;100.00
34073;BME280;20346;52.702;16.886;2023-12-20T03:50:23;100006.30;;;5.72;100.00
34073;BME280;20346;52.702;16.886;2023-12-20T03:53:09;100001.70;;;5.71;100.00
34073;BME280;20346;52.702;16.886;2023-12-20T03:55:56;99999.31;;;5.70;100.00
34073;BME280;20346;52.702;16.886;2023-12-20T03:58:42;100000.17;;;5.69;100.00
34073;BME280;20346;52.702;16.886;2023-12-20T04:01:28;99995.23;;;5.68;100.00
34073;BME280;20346;52.702;16.886;2023-12-20T04:04:14;99985.83;;;5.65;100.00
34073;BME280;20346;52.702;16.886;2023-12-20T04:07:00;99985.16;;;5.63;100.00
34073;BME280;20346;52.702;16.886;2023-12-20T04:09:46;99984.31;;;5.63;100.00
34073;BME280;20346;52.702;16.886;2023-12-20T04:12:34;99982.45;;;5.61;100.00
34073;BME280;20346;52.702;16.886;2023-12-20T04:15:20;99983.99;;;5.60;100.00
34073;BME280;20346;52.702;16.886;2023-12-20T04:18:06;99987.07;;;5.59;100.00
34073;BME280;20346;52.702;16.886;2023-12-20T04:20:52;99982.47;;;5.57;100.00
34073;BME280;20346;52.702;16.886;2023-12-20T04:23:38;99981.95;;;5.58;100.00
34073;BME280;20346;52.702;16.886;2023-12-20T04:26:24;99981.95;;;5.58;100.00
34073;BME280;20346;52.702;16.886;2023-12-20T04:29:10;99980.07;;;5.57;100.00
34073;BME280;20346;52.702;16.886;2023-12-20T04:31:56;99979.05;;;5.57;100.00
34073;BME280;20346;52.702;16.886;2023-12-20T04:34:43;99977.68;;;5.57;100.00
34073;BME280;20346;52.702;16.886;2023-12-20T04:37:29;99974.77;;;5.56;100.00
34073;BME280;20346;52.702;16.886;2023-12-20T04:40:15;99977.17;;;5.56;100.00
34073;BME280;20346;52.702;16.886;2023-12-20T04:43:01;99978.54;;;5.56;100.00
34073;BME280;20346;52.702;16.886;2023-12-20T04:45:47;99976.15;;;5.55;100.00
34073;BME280;20346;52.702;16.886;2023-12-20T04:48:33;99974.44;;;5.56;100.00
34073;BME280;20346;52.702;16.886;2023-12-20T04:51:19;99972.56;;;5.56;100.00
34073;BME280;20346;52.702;16.886;2023-12-20T04:54:06;99975.97;;;5.56;100.00
34073;BME280;20346;52.702;16.886;2023-12-20T04:56:52;99973.76;;;5.56;100.00
34073;BME280;20346;52.702;16.886;2023-12-20T04:59:38;99975.98;;;5.55;100.00
34073;BME280;20346;52.702;16.886;2023-12-20T05:02:24;99975.11;;;5.55;100.00
34073;BME280;20346;52.702;16.886;2023-12-20T05:05:10;99970.16;;;5.56;100.00
34073;BME280;20346;52.702;16.886;2023-12-20T05:07:56;99967.95;;;5.55;100.00
34073;BME280;20346;52.702;16.886;2023-12-20T05:10:43;99972.91;;;5.55;100.00
34073;BME280;20346;52.702;16.886;2023-12-20T05:13:29;99979.41;;;5.54;100.00
34073;BME280;20346;52.702;16.886;2023-12-20T05:16:15;99985.56;;;5.54;100.00
34073;BME280;20346;52.702;16.886;2023-12-20T05:19:03;99989.31;;;5.54;100.00
34073;BME280;20346;52.702;16.886;2023-12-20T05:21:52;99984.54;;;5.53;100.00
34073;BME280;20346;52.702;16.886;2023-12-20T05:24:38;99982.48;;;5.52;100.00
34073;BME280;20346;52.702;16.886;2023-12-20T05:27:24;99982.84;;;5.51;100.00
34073;BME280;20346;52.702;16.886;2023-12-20T05:30:10;99984.05;;;5.49;100.00
34073;BME280;20346;52.702;16.886;2023-12-20T05:32:56;99987.48;;;5.46;100.00
34073;BME280;20346;52.702;16.886;2023-12-20T05:35:41;99982.70;;;5.45;100.00
34073;BME280;20346;52.702;16.886;2023-12-20T05:38:27;99980.65;;;5.44;100.00
34073;BME280;20346;52.702;16.886;2023-12-20T05:41:13;99983.91;;;5.44;100.00
34073;BME280;20346;52.702;16.886;2023-12-20T05:43:59;99982.89;;;5.42;100.00
34073;BME280;20346;52.702;16.886;2023-12-20T05:46:45;99973.16;;;5.40;100.00
34073;BME280;20346;52.702;16.886;2023-12-20T05:49:50;99968.89;;;5.38;100.00
34073;BME280;20346;52.702;16.886;2023-12-20T05:52:36;99981.39;;;5.34;100.00
34073;BME280;20346;52.702;16.886;2023-12-20T05:55:22;99979.02;;;5.30;100.00
34073;BME280;20346;52.702;16.886;2023-12-20T05:58:08;99975.95;;;5.28;100.00
34073;BME280;20346;52.702;16.886;2023-12-20T06:00:54;99976.30;;;5.27;100.00
34073;BME280;20346;52.702;16.886;2023-12-20T06:03:43;99976.64;;;5.26;100.00
34073;BME280;20346;52.702;16.886;2023-12-20T06:06:29;99973.73;;;5.26;100.00
34073;BME280;20346;52.702;16.886;2023-12-20T06:09:16;99977.15;;;5.27;100.00
34073;BME280;20346;52.702;16.886;2023-12-20T06:12:01;99976.64;;;5.26;100.00
34073;BME280;20346;52.702;16.886;2023-12-20T06:14:47;99974.43;;;5.25;100.00
34073;BME280;20346;52.702;16.886;2023-12-20T06:17:33;99977.84;;;5.26;100.00
34073;BME280;20346;52.702;16.886;2023-12-20T06:20:20;99981.09;;;5.24;100.00
34073;BME280;20346;52.702;16.886;2023-12-20T06:23:06;99973.05;;;5.25;100.00
34073;BME280;20346;52.702;16.886;2023-12-20T06:25:52;99970.84;;;5.24;100.00
34073;BME280;20346;52.702;16.886;2023-12-20T06:28:38;99969.50;;;5.20;100.00
34073;BME280;20346;52.702;16.886;2023-12-20T06:31:24;99969.72;;;5.14;100.00
34073;BME280;20346;52.702;16.886;2023-12-20T06:34:09;99977.09;;;5.08;100.00
34073;BME280;20346;52.702;16.886;2023-12-20T06:36:56;99979.84;;;5.04;100.00
34073;BME280;20346;52.702;16.886;2023-12-20T06:39:41;99987.71;;;4.98;100.00
34073;BME280;20346;52.702;16.886;2023-12-20T06:42:27;99986.02;;;4.93;100.00
34073;BME280;20346;52.702;16.886;2023-12-20T06:45:13;99985.02;;;4.89;100.00
34073;BME280;20346;52.702;16.886;2023-12-20T06:47:59;99990.99;;;4.87;100.00
34073;BME280;20346;52.702;16.886;2023-12-20T06:50:45;99995.79;;;4.82;100.00
34073;BME280;20346;52.702;16.886;2023-12-20T06:53:31;99999.89;;;4.79;100.00
34073;BME280;20346;52.702;16.886;2023-12-20T06:56:17;99999.05;;;4.74;100.00
34073;BME280;20346;52.702;16.886;2023-12-20T06:59:03;100008.78;;;4.73;100.00
34073;BME280;20346;52.702;16.886;2023-12-20T07:01:49;100022.11;;;4.71;100.00
34073;BME280;20346;52.702;16.886;2023-12-20T07:04:39;100020.91;;;4.72;100.00
34073;BME280;20346;52.702;16.886;2023-12-20T07:07:25;100014.08;;;4.72;100.00
34073;BME280;20346;52.702;16.886;2023-12-20T07:10:11;100013.56;;;4.72;100.00
34073;BME280;20346;52.702;16.886;2023-12-20T07:12:58;100020.05;;;4.73;100.00
34073;BME280;20346;52.702;16.886;2023-12-20T07:15:44;100028.25;;;4.75;100.00
34073;BME280;20346;52.702;16.886;2023-12-20T07:18:30;100024.14;;;4.81;100.00
34073;BME280;20346;52.702;16.886;2023-12-20T07:21:16;100016.98;;;4.79;100.00
34073;BME280;20346;52.702;16.886;2023-12-20T07:24:02;100015.61;;;4.80;100.00
34073;BME280;20346;52.702;16.886;2023-12-20T07:26:48;100019.02;;;4.80;100.00
34073;BME280;20346;52.702;16.886;2023-12-20T07:29:35;100016.11;;;4.80;100.00
34073;BME280;20346;52.702;16.886;2023-12-20T07:32:21;100015.95;;;4.81;100.00
34073;BME280;20346;52.702;16.886;2023-12-20T07:35:08;100016.96;;;4.81;100.00
34073;BME280;20346;52.702;16.886;2023-12-20T07:37:53;100024.14;;;4.82;100.00
34073;BME280;20346;52.702;16.886;2023-12-20T07:40:39;100024.48;;;4.83;100.00
34073;BME280;20346;52.702;16.886;2023-12-20T07:43:25;100022.60;;;4.83;100.00
34073;BME280;20346;52.702;16.886;2023-12-20T07:46:11;100028.05;;;4.83;100.00
34073;BME280;20346;52.702;16.886;2023-12-20T07:48:57;100021.91;;;4.84;100.00
34073;BME280;20346;52.702;16.886;2023-12-20T07:51:43;100016.79;;;4.85;100.00
34073;BME280;20346;52.702;16.886;2023-12-20T07:54:29;100021.91;;;4.85;100.00
34073;BME280;20346;52.702;16.886;2023-12-20T07:57:15;100019.69;;;4.84;100.00
34073;BME280;20346;52.702;16.886;2023-12-20T08:00:01;100014.23;;;4.84;100.00
34073;BME280;20346;52.702;16.886;2023-12-20T08:02:49;100018.50;;;4.83;100.00
34073;BME280;20346;52.702;16.886;2023-12-20T08:05:35;100017.80;;;4.85;100.00
34073;BME280;20346;52.702;16.886;2023-12-20T08:08:22;100015.08;;;4.88;100.00
34073;BME280;20346;52.702;16.886;2023-12-20T08:11:08;100016.27;;;4.90;100.00
34073;BME280;20346;52.702;16.886;2023-12-20T08:13:54;100013.01;;;4.91;100.00
34073;BME280;20346;52.702;16.886;2023-12-20T08:16:40;100017.79;;;4.93;100.00
34073;BME280;20346;52.702;16.886;2023-12-20T08:19:26;100013.17;;;4.93;100.00
34073;BME280;20346;52.702;16.886;2023-12-20T08:22:12;100002.94;;;4.91;100.00
34073;BME280;20346;52.702;16.886;2023-12-20T08:24:59;100002.95;;;4.88;100.00
34073;BME280;20346;52.702;16.886;2023-12-20T08:27:45;100009.09;;;4.87;100.00
34073;BME280;20346;52.702;16.886;2023-12-20T08:30:31;100012.17;;;4.86;100.00
34073;BME280;20346;52.702;16.886;2023-12-20T08:33:18;100012.34;;;4.87;100.00
34073;BME280;20346;52.702;16.886;2023-12-20T08:36:04;100010.80;;;4.89;100.00
34073;BME280;20346;52.702;16.886;2023-12-20T08:38:51;100012.49;;;4.93;100.00
34073;BME280;20346;52.702;16.886;2023-12-20T08:41:37;100010.45;;;4.93;100.00
34073;BME280;20346;52.702;16.886;2023-12-20T08:44:23;100008.58;;;4.91;100.00
34073;BME280;20346;52.702;16.886;2023-12-20T08:47:09;100008.58;;;4.88;100.00
34073;BME280;20346;52.702;16.886;2023-12-20T08:49:59;100004.09;;;5.07;100.00
34073;BME280;20346;52.702;16.886;2023-12-20T08:52:46;99998.17;;;5.24;100.00
34073;BME280;20346;52.702;16.886;2023-12-20T08:55:32;99996.40;;;5.39;100.00
34073;BME280;20346;52.702;16.886;2023-12-20T08:58:18;99997.41;;;5.45;100.00
34073;BME280;20346;52.702;16.886;2023-12-20T09:01:04;99998.20;;;5.54;100.00
34073;BME280;20346;52.702;16.886;2023-12-20T09:03:50;99988.50;;;5.74;99.55
34073;BME280;20346;52.702;16.886;2023-12-20T09:06:36;99985.11;;;5.97;98.84
34073;BME280;20346;52.702;16.886;2023-12-20T09:09:22;99982.48;;;6.06;97.25
34073;BME280;20346;52.702;16.886;2023-12-20T09:12:08;99980.20;;;5.91;97.57
34073;BME280;20346;52.702;16.886;2023-12-20T09:14:54;99981.91;;;5.89;98.75
34073;BME280;20346;52.702;16.886;2023-12-20T09:17:41;99976.94;;;5.88;98.66
34073;BME280;20346;52.702;16.886;2023-12-20T09:20:27;99972.15;;;5.88;98.23
34073;BME280;20346;52.702;16.886;2023-12-20T09:23:13;99971.34;;;5.80;98.53
34073;BME280;20346;52.702;16.886;2023-12-20T09:25:59;99970.93;;;5.68;97.39
34073;BME280;20346;52.702;16.886;2023-12-20T09:28:45;99971.55;;;5.75;98.24
34073;BME280;20346;52.702;16.886;2023-12-20T09:31:31;99974.90;;;5.85;97.54
34073;BME280;20346;52.702;16.886;2023-12-20T09:34:17;99978.84;;;5.85;96.34
34073;BME280;20346;52.702;16.886;2023-12-20T09:37:03;99970.43;;;5.93;98.20
34073;BME280;20346;52.702;16.886;2023-12-20T09:39:49;99970.25;;;5.95;98.55
34073;BME280;20346;52.702;16.886;2023-12-20T09:45:21;99962.20;;;5.95;98.71
34073;BME280;20346;52.702;16.886;2023-12-20T09:48:07;99960.52;;;5.91;98.09
34073;BME280;20346;52.702;16.886;2023-12-20T09:50:56;99956.08;;;5.91;98.30
34073;BME280;20346;52.702;16.886;2023-12-20T09:53:42;99947.19;;;5.88;97.38
34073;BME280;20346;52.702;16.886;2023-12-20T09:56:29;99943.92;;;5.87;97.17
34073;BME280;20346;52.702;16.886;2023-12-20T09:59:15;99943.43;;;5.85;97.28
34073;BME280;20346;52.702;16.886;2023-12-20T10:02:01;99937.13;;;5.82;97.21
34073;BME280;20346;52.702;16.886;2023-12-20T10:04:50;99925.36;;;5.77;97.53
34073;BME280;20346;52.702;16.886;2023-12-20T10:07:36;99921.42;;;5.77;98.37
34073;BME280;20346;52.702;16.886;2023-12-20T10:10:23;99917.85;;;5.75;96.75
34073;BME280;20346;52.702;16.886;2023-12-20T10:13:10;99912.42;;;5.72;96.60
34073;BME280;20346;52.702;16.886;2023-12-20T10:15:56;99916.20;;;5.70;96.62
34073;BME280;20346;52.702;16.886;2023-12-20T10:18:43;99913.19;;;5.64;96.56
34073;BME280;20346;52.702;16.886;2023-12-20T10:21:30;99913.04;;;5.61;97.02
34073;BME280;20346;52.702;16.886;2023-12-20T10:24:17;99912.36;;;5.58;96.48
34073;BME280;20346;52.702;16.886;2023-12-20T10:27:04;99910.35;;;5.53;95.34
34073;BME280;20346;52.702;16.886;2023-12-20T10:29:50;99907.80;;;5.50;94.17
34073;BME280;20346;52.702;16.886;2023-12-20T10:32:37;99910.86;;;5.52;95.26
34073;BME280;20346;52.702;16.886;2023-12-20T10:35:23;99907.29;;;5.50;93.99
34073;BME280;20346;52.702;16.886;2023-12-20T10:38:09;99905.25;;;5.48;94.79
34073;BME280;20346;52.702;16.886;2023-12-20T10:40:56;99895.16;;;5.49;95.89
34073;BME280;20346;52.702;16.886;2023-12-20T10:43:46;99891.23;;;5.48;95.54
34073;BME280;20346;52.702;16.886;2023-12-20T10:46:33;99889.73;;;5.44;95.53
34073;BME280;20346;52.702;16.886;2023-12-20T10:49:19;99888.04;;;5.40;94.49
34073;BME280;20346;52.702;16.886;2023-12-20T10:52:05;99880.86;;;5.41;95.68
34073;BME280;20346;52.702;16.886;2023-12-20T10:54:51;99875.76;;;5.36;95.78
34073;BME280;20346;52.702;16.886;2023-12-20T10:57:37;99869.29;;;5.33;96.10
34073;BME280;20346;52.702;16.886;2023-12-20T11:00:24;99871.89;;;5.26;95.82
34073;BME280;20346;52.702;16.886;2023-12-20T11:03:10;99857.05;;;5.23;95.75
34073;BME280;20346;52.702;16.886;2023-12-20T11:06:02;99851.58;;;5.23;95.89
34073;BME280;20346;52.702;16.886;2023-12-20T11:11:37;99843.67;;;5.30;96.70
34073;BME280;20346;52.702;16.886;2023-12-20T11:14:31;99837.48;;;5.35;97.01
34073;BME280;20346;52.702;16.886;2023-12-20T11:17:19;99840.42;;;5.30;96.75
34073;BME280;20346;52.702;16.886;2023-12-20T11:20:05;99830.88;;;5.28;97.16
34073;BME280;20346;52.702;16.886;2023-12-20T11:22:52;99829.36;;;5.25;97.09
34073;BME280;20346;52.702;16.886;2023-12-20T11:25:48;99824.98;;;5.19;96.77
34073;BME280;20346;52.702;16.886;2023-12-20T11:28:34;99819.06;;;5.11;97.17
34073;BME280;20346;52.702;16.886;2023-12-20T11:31:20;99812.59;;;5.07;97.19
34073;BME280;20346;52.702;16.886;2023-12-20T11:34:12;99808.84;;;5.08;97.68
34073;BME280;20346;52.702;16.886;2023-12-20T11:36:59;99804.89;;;5.10;98.09
34073;BME280;20346;52.702;16.886;2023-12-20T11:39:45;99803.86;;;5.10;98.15
34073;BME280;20346;52.702;16.886;2023-12-20T11:42:44;99795.84;;;5.10;98.30
34073;BME280;20346;52.702;16.886;2023-12-20T11:45:30;99791.25;;;5.05;98.15
34073;BME280;20346;52.702;16.886;2023-12-20T11:48:17;99782.55;;;5.04;98.35
34073;BME280;20346;52.702;16.886;2023-12-20T11:51:11;99785.83;;;4.99;99.00
34073;BME280;20346;52.702;16.886;2023-12-20T11:53:57;99783.42;;;5.00;98.98
34073;BME280;20346;52.702;16.886;2023-12-20T11:56:43;99780.35;;;5.02;98.81
34073;BME280;20346;52.702;16.886;2023-12-20T11:59:30;99780.86;;;5.00;99.07
34073;BME280;20346;52.702;16.886;2023-12-20T12:02:17;99776.63;;;4.97;99.42
34073;BME280;20346;52.702;16.886;2023-12-20T12:05:03;99768.42;;;4.98;99.40
34073;BME280;20346;52.702;16.886;2023-12-20T12:07:52;99760.38;;;5.01;99.25
34073;BME280;20346;52.702;16.886;2023-12-20T12:10:38;99752.52;;;5.01;99.24
34073;BME280;20346;52.702;16.886;2023-12-20T12:13:24;99744.98;;;5.03;99.31
34073;BME280;20346;52.702;16.886;2023-12-20T12:16:13;99744.81;;;5.04;99.25
34073;BME280;20346;52.702;16.886;2023-12-20T12:19:02;99741.23;;;5.04;99.14
34073;BME280;20346;52.702;16.886;2023-12-20T12:21:48;99747.19;;;5.04;98.77
34073;BME280;20346;52.702;16.886;2023-12-20T12:24:34;99738.67;;;5.02;98.46
34073;BME280;20346;52.702;16.886;2023-12-20T12:27:19;99735.41;;;5.05;98.58
34073;BME280;20346;52.702;16.886;2023-12-20T12:30:06;99733.68;;;5.07;98.48
34073;BME280;20346;52.702;16.886;2023-12-20T12:32:53;99730.80;;;5.04;98.52
34073;BME280;20346;52.702;16.886;2023-12-20T12:35:40;99731.65;;;5.03;98.76
34073;BME280;20346;52.702;16.886;2023-12-20T12:38:26;99723.30;;;5.01;98.77
34073;BME280;20346;52.702;16.886;2023-12-20T12:41:12;99722.13;;;4.98;98.42
34073;BME280;20346;52.702;16.886;2023-12-20T12:43:58;99716.81;;;5.01;98.50
34073;BME280;20346;52.702;16.886;2023-12-20T12:46:45;99715.96;;;5.02;98.55
34073;BME280;20346;52.702;16.886;2023-12-20T12:49:32;99709.63;;;5.03;98.49
34073;BME280;20346;52.702;16.886;2023-12-20T12:52:18;99708.27;;;5.03;98.33
34073;BME280;20346;52.702;16.886;2023-12-20T12:55:04;99706.19;;;5.05;98.41
34073;BME280;20346;52.702;16.886;2023-12-20T12:57:50;99706.86;;;5.06;98.40
34073;BME280;20346;52.702;16.886;2023-12-20T13:00:36;99696.43;;;5.08;97.93
34073;BME280;20346;52.702;16.886;2023-12-20T13:03:22;99699.49;;;5.10;97.66
34073;BME280;20346;52.702;16.886;2023-12-20T13:06:09;99692.13;;;5.12;96.76
34073;BME280;20346;52.702;16.886;2023-12-20T13:08:55;99683.20;;;5.17;97.27
34073;BME280;20346;52.702;16.886;2023-12-20T13:11:41;99681.48;;;5.18;96.94
34073;BME280;20346;52.702;16.886;2023-12-20T13:14:27;99678.58;;;5.18;96.50
34073;BME280;20346;52.702;16.886;2023-12-20T13:17:13;99676.36;;;5.17;96.11
34073;BME280;20346;52.702;16.886;2023-12-20T13:19:59;99679.61;;;5.16;95.79
34073;BME280;20346;52.702;16.886;2023-12-20T13:22:45;99674.52;;;5.14;95.87
34073;BME280;20346;52.702;16.886;2023-12-20T13:25:31;99676.90;;;5.14;95.92
34073;BME280;20346;52.702;16.886;2023-12-20T13:28:17;99662.55;;;5.15;95.85
34073;BME280;20346;52.702;16.886;2023-12-20T13:31:03;99660.48;;;5.17;95.56
34073;BME280;20346;52.702;16.886;2023-12-20T13:33:49;99651.41;;;5.19;95.62
34073;BME280;20346;52.702;16.886;2023-12-20T13:36:34;99653.45;;;5.19;94.76
34073;BME280;20346;52.702;16.886;2023-12-20T13:39:21;99650.16;;;5.21;95.13
34073;BME280;20346;52.702;16.886;2023-12-20T13:42:07;99644.52;;;5.21;95.15
34073;BME280;20346;52.702;16.886;2023-12-20T13:44:53;99644.34;;;5.23;95.27
34073;BME280;20346;52.702;16.886;2023-12-20T13:47:39;99640.75;;;5.23;94.86
34073;BME280;20346;52.702;16.886;2023-12-20T13:50:25;99633.23;;;5.23;94.52
34073;BME280;20346;52.702;16.886;2023-12-20T13:53:11;99629.80;;;5.24;95.39
34073;BME280;20346;52.702;16.886;2023-12-20T13:55:57;99615.46;;;5.22;95.02
34073;BME280;20346;52.702;16.886;2023-12-20T13:58:43;99615.70;;;5.19;93.64
34073;BME280;20346;52.702;16.886;2023-12-20T14:01:29;99616.36;;;5.20;94.42
34073;BME280;20346;52.702;16.886;2023-12-20T14:04:15;99618.21;;;5.22;95.13
34073;BME280;20346;52.702;16.886;2023-12-20T14:07:00;99615.13;;;5.21;93.62
34073;BME280;20346;52.702;16.886;2023-12-20T14:09:46;99605.55;;;5.23;93.77
34073;BME280;20346;52.702;16.886;2023-12-20T14:12:33;99602.48;;;5.23;92.74
34073;BME280;20346;52.702;16.886;2023-12-20T14:15:21;99602.11;;;5.25;93.17
34073;BME280;20346;52.702;16.886;2023-12-20T14:18:10;99603.81;;;5.26;93.18
34073;BME280;20346;52.702;16.886;2023-12-20T14:20:58;99596.08;;;5.29;94.12
34073;BME280;20346;52.702;16.886;2023-12-20T14:23:43;99600.55;;;5.27;92.95
34073;BME280;20346;52.702;16.886;2023-12-20T14:26:30;99597.48;;;5.26;93.68
34073;BME280;20346;52.702;16.886;2023-12-20T14:29:15;99595.29;;;5.23;94.03
34073;BME280;20346;52.702;16.886;2023-12-20T14:32:02;99589.73;;;5.18;94.60
34073;BME280;20346;52.702;16.886;2023-12-20T14:34:48;99590.15;;;5.12;95.24